sensor_id;sensor_type;location;lat;lon;timestamp;temperature;humidity
21759;DHT22;11041;50.854;20.580;2023-11-21T00:00:01;8.60;99.90
21759;DHT22;11041;50.854;20.580;2023-11-21T00:02:29;8.60;99.90
21759;DHT22;11041;50.854;20.580;2023-11-21T00:04:55;8.60;99.90
21759;DHT22;11041;50.854;20.580;2023-11-21T00:07:22;8.60;99.90
21759;DHT22;11041;50.854;20.580;2023-11-21T00:09:49;8.60;99.90
21759;DHT22;11041;50.854;20.580;2023-11-21T00:12:17;8.60;99.90
21759;DHT22;11041;50.854;20.580;2023-11-21T00:14:44;8.60;99.90
21759;DHT22;11041;50.854;20.580;2023-11-21T00:17:10;8.60;99.90
21759;DHT22;11041;50.854;20.580;2023-11-21T00:19:37;8.60;99.90
21759;DHT22;11041;50.854;20.580;2023-11-21T00:22:04;8.70;99.90
21759;DHT22;11041;50.854;20.580;2023-11-21T00:24:30;8.70;99.90
21759;DHT22;11041;50.854;20.580;2023-11-21T00:26:58;8.70;99.90
21759;DHT22;11041;50.854;20.580;2023-11-21T00:29:24;8.70;99.90
21759;DHT22;11041;50.854;20.580;2023-11-21T00:31:52;8.70;99.90
21759;DHT22;11041;50.854;20.580;2023-11-21T00:34:18;8.60;99.90
21759;DHT22;11041;50.854;20.580;2023-11-21T00:36:46;8.60;99.90
21759;DHT22;11041;50.854;20.580;2023-11-21T00:39:12;8.60;99.90
21759;DHT22;11041;50.854;20.580;2023-11-21T00:41:39;8.60;99.90
21759;DHT22;11041;50.854;20.580;2023-11-21T00:44:06;8.60;99.90
21759;DHT22;11041;50.854;20.580;2023-11-21T00:46:33;8.60;99.90
21759;DHT22;11041;50.854;20.580;2023-11-21T00:48:59;8.60;99.90
21759;DHT22;11041;50.854;20.580;2023-11-21T00:51:26;8.70;99.90
21759;DHT22;11041;50.854;20.580;2023-11-21T00:53:52;8.70;99.90
21759;DHT22;11041;50.854;20.580;2023-11-21T00:56:19;8.70;99.90
21759;DHT22;11041;50.854;20.580;2023-11-21T00:58:45;8.70;99.90
21759;DHT22;11041;50.854;20.580;2023-11-21T01:01:22;8.70;99.90
21759;DHT22;11041;50.854;20.580;2023-11-21T01:03:49;8.70;99.90
21759;DHT22;11041;50.854;20.580;2023-11-21T01:06:16;8.70;99.90
21759;DHT22;11041;50.854;20.580;2023-11-21T01:08:46;8.60;99.90
21759;DHT22;11041;50.854;20.580;2023-11-21T01:11:13;8.60;99.90
21759;DHT22;11041;50.854;20.580;2023-11-21T01:13:40;8.60;99.90
21759;DHT22;11041;50.854;20.580;2023-11-21T01:16:08;8.60;99.90
21759;DHT22;11041;50.854;20.580;2023-11-21T01:18:35;8.50;99.90
21759;DHT22;11041;50.854;20.580;2023-11-21T01:21:02;8.60;99.90
21759;DHT22;11041;50.854;20.580;2023-11-21T01:23:31;8.50;99.90
21759;DHT22;11041;50.854;20.580;2023-11-21T01:25:58;8.50;99.90
21759;DHT22;11041;50.854;20.580;2023-11-21T01:28:25;8.50;99.90
21759;DHT22;11041;50.854;20.580;2023-11-21T01:30:54;8.50;99.90
21759;DHT22;11041;50.854;20.580;2023-11-21T01:33:22;8.50;99.90
21759;DHT22;11041;50.854;20.580;2023-11-21T01:35:52;8.50;99.90
21759;DHT22;11041;50.854;20.580;2023-11-21T01:38:21;8.50;99.90
21759;DHT22;11041;50.854;20.580;2023-11-21T01:40:50;8.60;99.90
21759;DHT22;11041;50.854;20.580;2023-11-21T01:43:18;8.50;99.90
21759;DHT22;11041;50.854;20.580;2023-11-21T01:45:45;8.50;99.90
21759;DHT22;11041;50.854;20.580;2023-11-21T01:48:13;8.50;99.90
21759;DHT22;11041;50.854;20.580;2023-11-21T01:50:43;8.50;99.90
21759;DHT22;11041;50.854;20.580;2023-11-21T01:53:12;8.50;99.90
21759;DHT22;11041;50.854;20.580;2023-11-21T01:55:43;8.50;99.90
21759;DHT22;11041;50.854;20.580;2023-11-21T01:58:13;8.50;99.90
21759;DHT22;11041;50.854;20.580;2023-11-21T02:00:41;8.50;99.90
21759;DHT22;11041;50.854;20.580;2023-11-21T02:03:07;8.50;99.90
21759;DHT22;11041;50.854;20.580;2023-11-21T02:05:35;8.50;99.90
21759;DHT22;11041;50.854;20.580;2023-11-21T02:08:04;8.60;99.90
21759;DHT22;11041;50.854;20.580;2023-11-21T02:10:32;8.60;99.90
21759;DHT22;11041;50.854;20.580;2023-11-21T02:12:58;8.70;99.90
21759;DHT22;11041;50.854;20.580;2023-11-21T02:15:28;8.70;99.90
21759;DHT22;11041;50.854;20.580;2023-11-21T02:17:58;8.70;99.90
21759;DHT22;11041;50.854;20.580;2023-11-21T02:20:32;8.70;99.90
21759;DHT22;11041;50.854;20.580;2023-11-21T02:23:03;8.70;99.90
21759;DHT22;11041;50.854;20.580;2023-11-21T02:25:32;8.70;99.90
21759;DHT22;11041;50.854;20.580;2023-11-21T02:28:07;8.70;99.90
21759;DHT22;11041;50.854;20.580;2023-11-21T02:30:39;8.70;99.90
21759;DHT22;11041;50.854;20.580;2023-11-21T02:33:10;8.70;99.90
21759;DHT22;11041;50.854;20.580;2023-11-21T02:35:43;8.70;99.90
21759;DHT22;11041;50.854;20.580;2023-11-21T02:38:09;8.70;99.90
21759;DHT22;11041;50.854;20.580;2023-11-21T02:40:45;8.60;99.90
21759;DHT22;11041;50.854;20.580;2023-11-21T02:43:14;8.60;99.90
21759;DHT22;11041;50.854;20.580;2023-11-21T02:45:43;8.70;99.90
21759;DHT22;11041;50.854;20.580;2023-11-21T02:48:13;8.70;99.90
21759;DHT22;11041;50.854;20.580;2023-11-21T02:50:42;8.70;99.90
21759;DHT22;11041;50.854;20.580;2023-11-21T02:53:09;8.70;99.90
21759;DHT22;11041;50.854;20.580;2023-11-21T02:55:39;8.70;99.90
21759;DHT22;11041;50.854;20.580;2023-11-21T02:58:09;8.60;99.90
21759;DHT22;11041;50.854;20.580;2023-11-21T03:00:37;8.60;99.90
21759;DHT22;11041;50.854;20.580;2023-11-21T03:03:04;8.50;99.90
21759;DHT22;11041;50.854;20.580;2023-11-21T03:05:33;8.50;99.90
21759;DHT22;11041;50.854;20.580;2023-11-21T03:08:03;8.60;99.90
21759;DHT22;11041;50.854;20.580;2023-11-21T03:10:32;8.60;99.90
21759;DHT22;11041;50.854;20.580;2023-11-21T03:13:07;8.60;99.90
21759;DHT22;11041;50.854;20.580;2023-11-21T03:15:35;8.70;99.90
21759;DHT22;11041;50.854;20.580;2023-11-21T03:18:03;8.70;99.90
21759;DHT22;11041;50.854;20.580;2023-11-21T03:20:33;8.60;99.90
21759;DHT22;11041;50.854;20.580;2023-11-21T03:23:00;8.60;99.90
21759;DHT22;11041;50.854;20.580;2023-11-21T03:25:31;8.60;99.90
21759;DHT22;11041;50.854;20.580;2023-11-21T03:27:58;8.60;99.90
21759;DHT22;11041;50.854;20.580;2023-11-21T03:30:27;8.50;99.90
21759;DHT22;11041;50.854;20.580;2023-11-21T03:32:56;8.60;99.90
21759;DHT22;11041;50.854;20.580;2023-11-21T03:35:23;8.60;99.90
21759;DHT22;11041;50.854;20.580;2023-11-21T03:37:53;8.60;99.90
21759;DHT22;11041;50.854;20.580;2023-11-21T03:40:26;8.60;99.90
21759;DHT22;11041;50.854;20.580;2023-11-21T03:42:56;8.60;99.90
21759;DHT22;11041;50.854;20.580;2023-11-21T03:45:26;8.50;99.90
21759;DHT22;11041;50.854;20.580;2023-11-21T03:47:57;8.40;99.90
21759;DHT22;11041;50.854;20.580;2023-11-21T03:50:36;8.40;99.90
21759;DHT22;11041;50.854;20.580;2023-11-21T03:53:06;8.30;99.90
21759;DHT22;11041;50.854;20.580;2023-11-21T03:55:34;8.30;99.90
21759;DHT22;11041;50.854;20.580;2023-11-21T03:58:05;8.40;99.90
21759;DHT22;11041;50.854;20.580;2023-11-21T04:00:37;8.30;99.90
21759;DHT22;11041;50.854;20.580;2023-11-21T04:03:09;8.20;99.90
21759;DHT22;11041;50.854;20.580;2023-11-21T04:05:38;8.30;99.90
21759;DHT22;11041;50.854;20.580;2023-11-21T04:08:09;8.30;99.90
21759;DHT22;11041;50.854;20.580;2023-11-21T04:10:39;8.40;99.90
21759;DHT22;11041;50.854;20.580;2023-11-21T04:13:08;8.40;99.90
21759;DHT22;11041;50.854;20.580;2023-11-21T04:15:37;8.40;99.90
21759;DHT22;11041;50.854;20.580;2023-11-21T04:18:06;8.40;99.90
21759;DHT22;11041;50.854;20.580;2023-11-21T04:20:34;8.40;99.90
21759;DHT22;11041;50.854;20.580;2023-11-21T04:23:04;8.50;99.90
21759;DHT22;11041;50.854;20.580;2023-11-21T04:25:36;8.50;99.90
21759;DHT22;11041;50.854;20.580;2023-11-21T04:28:07;8.50;99.90
21759;DHT22;11041;50.854;20.580;2023-11-21T04:30:37;8.40;99.90
21759;DHT22;11041;50.854;20.580;2023-11-21T04:33:07;8.30;99.90
21759;DHT22;11041;50.854;20.580;2023-11-21T04:35:35;8.20;99.90
21759;DHT22;11041;50.854;20.580;2023-11-21T04:38:06;8.20;99.90
21759;DHT22;11041;50.854;20.580;2023-11-21T04:40:38;8.20;99.90
21759;DHT22;11041;50.854;20.580;2023-11-21T04:43:07;8.10;99.90
21759;DHT22;11041;50.854;20.580;2023-11-21T04:45:34;8.00;99.90
21759;DHT22;11041;50.854;20.580;2023-11-21T04:48:01;8.00;99.90
21759;DHT22;11041;50.854;20.580;2023-11-21T04:50:31;8.00;99.90
21759;DHT22;11041;50.854;20.580;2023-11-21T04:52:59;8.00;99.90
21759;DHT22;11041;50.854;20.580;2023-11-21T04:55:28;7.90;99.90
21759;DHT22;11041;50.854;20.580;2023-11-21T04:57:55;7.90;99.90
21759;DHT22;11041;50.854;20.580;2023-11-21T05:00:22;7.90;99.90
21759;DHT22;11041;50.854;20.580;2023-11-21T05:02:48;8.00;99.90
21759;DHT22;11041;50.854;20.580;2023-11-21T05:05:16;8.10;99.90
21759;DHT22;11041;50.854;20.580;2023-11-21T05:07:43;8.10;99.90
21759;DHT22;11041;50.854;20.580;2023-11-21T05:10:12;8.10;99.90
21759;DHT22;11041;50.854;20.580;2023-11-21T05:12:44;8.10;99.90
21759;DHT22;11041;50.854;20.580;2023-11-21T05:15:14;8.20;99.90
21759;DHT22;11041;50.854;20.580;2023-11-21T05:17:44;8.20;99.90
21759;DHT22;11041;50.854;20.580;2023-11-21T05:20:13;8.10;99.90
21759;DHT22;11041;50.854;20.580;2023-11-21T05:22:45;8.10;99.90
21759;DHT22;11041;50.854;20.580;2023-11-21T05:25:19;8.10;99.90
21759;DHT22;11041;50.854;20.580;2023-11-21T05:27:46;8.00;99.90
21759;DHT22;11041;50.854;20.580;2023-11-21T05:30:13;8.00;99.90
21759;DHT22;11041;50.854;20.580;2023-11-21T05:32:41;8.00;99.90
21759;DHT22;11041;50.854;20.580;2023-11-21T05:35:09;7.90;99.90
21759;DHT22;11041;50.854;20.580;2023-11-21T05:37:42;7.90;99.90
21759;DHT22;11041;50.854;20.580;2023-11-21T05:40:14;7.90;99.90
21759;DHT22;11041;50.854;20.580;2023-11-21T05:42:41;8.00;99.90
21759;DHT22;11041;50.854;20.580;2023-11-21T05:45:14;8.00;99.90
21759;DHT22;11041;50.854;20.580;2023-11-21T05:47:45;8.00;99.90
21759;DHT22;11041;50.854;20.580;2023-11-21T05:50:16;7.90;99.90
21759;DHT22;11041;50.854;20.580;2023-11-21T05:52:47;7.90;99.90
21759;DHT22;11041;50.854;20.580;2023-11-21T05:55:14;7.90;99.90
21759;DHT22;11041;50.854;20.580;2023-11-21T05:57:42;7.80;99.90
21759;DHT22;11041;50.854;20.580;2023-11-21T06:00:16;7.90;99.90
21759;DHT22;11041;50.854;20.580;2023-11-21T06:02:52;7.80;99.90
21759;DHT22;11041;50.854;20.580;2023-11-21T06:05:22;7.90;99.90
21759;DHT22;11041;50.854;20.580;2023-11-21T06:07:54;7.80;99.90
21759;DHT22;11041;50.854;20.580;2023-11-21T06:10:26;7.90;99.90
21759;DHT22;11041;50.854;20.580;2023-11-21T06:12:55;7.80;99.90
21759;DHT22;11041;50.854;20.580;2023-11-21T06:15:24;7.80;99.90
21759;DHT22;11041;50.854;20.580;2023-11-21T06:17:51;7.80;99.90
21759;DHT22;11041;50.854;20.580;2023-11-21T06:20:19;7.80;99.90
21759;DHT22;11041;50.854;20.580;2023-11-21T06:22:48;7.80;99.90
21759;DHT22;11041;50.854;20.580;2023-11-21T06:25:18;7.70;99.90
21759;DHT22;11041;50.854;20.580;2023-11-21T06:27:46;7.70;99.90
21759;DHT22;11041;50.854;20.580;2023-11-21T06:30:15;7.60;99.90
21759;DHT22;11041;50.854;20.580;2023-11-21T06:32:42;7.60;99.90
21759;DHT22;11041;50.854;20.580;2023-11-21T06:35:12;7.50;99.90
21759;DHT22;11041;50.854;20.580;2023-11-21T06:37:39;7.50;99.90
21759;DHT22;11041;50.854;20.580;2023-11-21T06:40:06;7.50;99.90
21759;DHT22;11041;50.854;20.580;2023-11-21T06:42:35;7.50;99.90
21759;DHT22;11041;50.854;20.580;2023-11-21T06:45:01;7.40;99.90
21759;DHT22;11041;50.854;20.580;2023-11-21T06:47:33;7.40;99.90
21759;DHT22;11041;50.854;20.580;2023-11-21T06:50:00;7.40;99.90
21759;DHT22;11041;50.854;20.580;2023-11-21T06:52:27;7.40;99.90
21759;DHT22;11041;50.854;20.580;2023-11-21T06:54:55;7.40;99.90
21759;DHT22;11041;50.854;20.580;2023-11-21T06:57:26;7.40;99.90
21759;DHT22;11041;50.854;20.580;2023-11-21T06:59:58;7.50;99.90
21759;DHT22;11041;50.854;20.580;2023-11-21T07:02:29;7.50;99.90
21759;DHT22;11041;50.854;20.580;2023-11-21T07:04:59;7.50;99.90
21759;DHT22;11041;50.854;20.580;2023-11-21T07:07:28;7.60;99.90
21759;DHT22;11041;50.854;20.580;2023-11-21T07:09:55;7.60;99.90
21759;DHT22;11041;50.854;20.580;2023-11-21T07:12:24;7.50;99.90
21759;DHT22;11041;50.854;20.580;2023-11-21T07:14:53;7.50;99.90
21759;DHT22;11041;50.854;20.580;2023-11-21T07:17:21;7.50;99.90
21759;DHT22;11041;50.854;20.580;2023-11-21T07:19:52;7.60;99.90
21759;DHT22;11041;50.854;20.580;2023-11-21T07:22:18;7.60;99.90
21759;DHT22;11041;50.854;20.580;2023-11-21T07:24:50;7.50;99.90
21759;DHT22;11041;50.854;20.580;2023-11-21T07:27:19;7.50;99.90
21759;DHT22;11041;50.854;20.580;2023-11-21T07:29:54;7.50;99.90
21759;DHT22;11041;50.854;20.580;2023-11-21T07:32:25;7.50;99.90
21759;DHT22;11041;50.854;20.580;2023-11-21T07:34:54;7.60;99.90
21759;DHT22;11041;50.854;20.580;2023-11-21T07:37:23;7.70;99.90
21759;DHT22;11041;50.854;20.580;2023-11-21T07:39:50;7.70;99.90
21759;DHT22;11041;50.854;20.580;2023-11-21T07:42:22;7.70;99.90
21759;DHT22;11041;50.854;20.580;2023-11-21T07:44:53;7.70;99.90
21759;DHT22;11041;50.854;20.580;2023-11-21T07:47:22;7.70;99.90
21759;DHT22;11041;50.854;20.580;2023-11-21T07:49:54;7.70;99.90
21759;DHT22;11041;50.854;20.580;2023-11-21T07:52:25;7.70;99.90
21759;DHT22;11041;50.854;20.580;2023-11-21T07:54:52;7.60;99.90
21759;DHT22;11041;50.854;20.580;2023-11-21T07:57:21;7.60;99.90
21759;DHT22;11041;50.854;20.580;2023-11-21T07:59:50;7.60;99.90
21759;DHT22;11041;50.854;20.580;2023-11-21T08:02:19;7.60;99.90
21759;DHT22;11041;50.854;20.580;2023-11-21T08:04:49;7.60;99.90
21759;DHT22;11041;50.854;20.580;2023-11-21T08:07:18;7.60;99.90
21759;DHT22;11041;50.854;20.580;2023-11-21T08:09:45;7.60;99.90
21759;DHT22;11041;50.854;20.580;2023-11-21T08:12:16;7.70;99.90
21759;DHT22;11041;50.854;20.580;2023-11-21T08:14:50;7.60;99.90
21759;DHT22;11041;50.854;20.580;2023-11-21T08:17:23;7.70;99.90
21759;DHT22;11041;50.854;20.580;2023-11-21T08:19:50;7.70;99.90
21759;DHT22;11041;50.854;20.580;2023-11-21T08:22:17;7.80;99.90
21759;DHT22;11041;50.854;20.580;2023-11-21T08:24:49;7.70;99.90
21759;DHT22;11041;50.854;20.580;2023-11-21T08:27:19;7.80;99.90
21759;DHT22;11041;50.854;20.580;2023-11-21T08:29:46;7.80;99.90
21759;DHT22;11041;50.854;20.580;2023-11-21T08:32:18;7.80;99.90
21759;DHT22;11041;50.854;20.580;2023-11-21T08:34:45;7.80;99.90
21759;DHT22;11041;50.854;20.580;2023-11-21T08:37:19;7.60;99.90
21759;DHT22;11041;50.854;20.580;2023-11-21T08:39:48;7.60;99.90
21759;DHT22;11041;50.854;20.580;2023-11-21T08:42:17;7.50;99.90
21759;DHT22;11041;50.854;20.580;2023-11-21T08:44:44;7.40;99.90
21759;DHT22;11041;50.854;20.580;2023-11-21T08:47:14;7.30;99.90
21759;DHT22;11041;50.854;20.580;2023-11-21T08:49:41;7.30;99.90
21759;DHT22;11041;50.854;20.580;2023-11-21T08:52:13;7.30;99.90
21759;DHT22;11041;50.854;20.580;2023-11-21T08:54:45;7.30;99.90
21759;DHT22;11041;50.854;20.580;2023-11-21T08:57:14;7.30;99.90
21759;DHT22;11041;50.854;20.580;2023-11-21T08:59:44;7.30;99.90
21759;DHT22;11041;50.854;20.580;2023-11-21T09:02:14;7.30;99.90
21759;DHT22;11041;50.854;20.580;2023-11-21T09:04:41;7.30;99.90
21759;DHT22;11041;50.854;20.580;2023-11-21T09:07:08;7.40;99.90
21759;DHT22;11041;50.854;20.580;2023-11-21T09:09:40;7.40;99.90
21759;DHT22;11041;50.854;20.580;2023-11-21T09:12:07;7.50;99.90
21759;DHT22;11041;50.854;20.580;2023-11-21T09:14:38;7.50;99.90
21759;DHT22;11041;50.854;20.580;2023-11-21T09:17:07;7.60;99.90
21759;DHT22;11041;50.854;20.580;2023-11-21T09:19:37;7.60;99.90
21759;DHT22;11041;50.854;20.580;2023-11-21T09:22:05;7.60;99.90
21759;DHT22;11041;50.854;20.580;2023-11-21T09:24:33;7.70;99.90
21759;DHT22;11041;50.854;20.580;2023-11-21T09:27:02;7.70;99.90
21759;DHT22;11041;50.854;20.580;2023-11-21T09:29:29;7.60;99.90
21759;DHT22;11041;50.854;20.580;2023-11-21T09:31:55;7.50;99.90
21759;DHT22;11041;50.854;20.580;2023-11-21T09:34:25;7.50;99.90
21759;DHT22;11041;50.854;20.580;2023-11-21T09:36:52;7.50;99.90
21759;DHT22;11041;50.854;20.580;2023-11-21T09:39:19;7.50;99.90
21759;DHT22;11041;50.854;20.580;2023-11-21T09:41:52;7.60;99.90
21759;DHT22;11041;50.854;20.580;2023-11-21T09:44:42;7.60;99.90
21759;DHT22;11041;50.854;20.580;2023-11-21T09:47:15;7.70;99.90
21759;DHT22;11041;50.854;20.580;2023-11-21T09:49:48;7.70;99.90
21759;DHT22;11041;50.854;20.580;2023-11-21T09:52:27;7.70;99.90
21759;DHT22;11041;50.854;20.580;2023-11-21T09:54:56;7.70;99.90
21759;DHT22;11041;50.854;20.580;2023-11-21T09:57:27;7.60;99.90
21759;DHT22;11041;50.854;20.580;2023-11-21T09:59:55;7.70;99.90
21759;DHT22;11041;50.854;20.580;2023-11-21T10:02:30;7.70;99.90
21759;DHT22;11041;50.854;20.580;2023-11-21T10:05:02;7.70;99.90
21759;DHT22;11041;50.854;20.580;2023-11-21T10:07:31;7.70;99.90
21759;DHT22;11041;50.854;20.580;2023-11-21T10:10:05;7.80;99.90
21759;DHT22;11041;50.854;20.580;2023-11-21T10:12:35;7.80;99.90
21759;DHT22;11041;50.854;20.580;2023-11-21T10:15:08;7.70;99.90
21759;DHT22;11041;50.854;20.580;2023-11-21T10:17:40;7.70;99.90
21759;DHT22;11041;50.854;20.580;2023-11-21T10:20:11;7.70;99.90
21759;DHT22;11041;50.854;20.580;2023-11-21T10:22:44;9.20;99.90
21759;DHT22;11041;50.854;20.580;2023-11-21T10:25:11;7.80;99.90
21759;DHT22;11041;50.854;20.580;2023-11-21T10:27:43;8.00;99.90
21759;DHT22;11041;50.854;20.580;2023-11-21T10:30:14;8.10;99.90
21759;DHT22;11041;50.854;20.580;2023-11-21T10:32:46;8.30;99.90
21759;DHT22;11041;50.854;20.580;2023-11-21T10:35:14;8.30;99.90
21759;DHT22;11041;50.854;20.580;2023-11-21T10:37:41;8.40;99.90
21759;DHT22;11041;50.854;20.580;2023-11-21T10:40:10;8.50;99.90
21759;DHT22;11041;50.854;20.580;2023-11-21T10:42:42;8.30;99.90
21759;DHT22;11041;50.854;20.580;2023-11-21T10:45:11;8.40;99.90
21759;DHT22;11041;50.854;20.580;2023-11-21T10:47:42;8.50;99.90
21759;DHT22;11041;50.854;20.580;2023-11-21T10:50:10;8.50;99.90
21759;DHT22;11041;50.854;20.580;2023-11-21T10:52:39;8.50;99.90
21759;DHT22;11041;50.854;20.580;2023-11-21T10:55:19;8.40;99.90
21759;DHT22;11041;50.854;20.580;2023-11-21T10:57:53;8.30;99.90
21759;DHT22;11041;50.854;20.580;2023-11-21T11:00:22;8.20;99.90
21759;DHT22;11041;50.854;20.580;2023-11-21T11:02:51;8.10;99.90
21759;DHT22;11041;50.854;20.580;2023-11-21T11:05:22;8.00;99.90
21759;DHT22;11041;50.854;20.580;2023-11-21T11:08:00;8.10;99.90
21759;DHT22;11041;50.854;20.580;2023-11-21T11:10:33;8.10;99.90
21759;DHT22;11041;50.854;20.580;2023-11-21T11:13:00;8.10;99.90
21759;DHT22;11041;50.854;20.580;2023-11-21T11:15:28;8.10;99.90
21759;DHT22;11041;50.854;20.580;2023-11-21T11:17:55;8.00;99.90
21759;DHT22;11041;50.854;20.580;2023-11-21T11:20:34;7.90;99.90
21759;DHT22;11041;50.854;20.580;2023-11-21T11:23:40;7.70;99.90
21759;DHT22;11041;50.854;20.580;2023-11-21T11:38:18;7.20;99.90
21759;DHT22;11041;50.854;20.580;2023-11-21T11:40:48;7.20;99.90
21759;DHT22;11041;50.854;20.580;2023-11-21T11:43:29;7.30;99.90
21759;DHT22;11041;50.854;20.580;2023-11-21T11:45:57;7.30;99.90
21759;DHT22;11041;50.854;20.580;2023-11-21T11:48:27;7.30;99.90
21759;DHT22;11041;50.854;20.580;2023-11-21T11:53:48;7.40;99.90
21759;DHT22;11041;50.854;20.580;2023-11-21T11:56:31;7.40;99.90
21759;DHT22;11041;50.854;20.580;2023-11-21T11:59:02;7.40;99.90
21759;DHT22;11041;50.854;20.580;2023-11-21T12:01:32;7.50;99.90
21759;DHT22;11041;50.854;20.580;2023-11-21T12:06:46;7.60;99.90
21759;DHT22;11041;50.854;20.580;2023-11-21T12:09:23;7.60;99.90
21759;DHT22;11041;50.854;20.580;2023-11-21T12:11:50;7.60;99.90
21759;DHT22;11041;50.854;20.580;2023-11-21T12:14:21;7.60;99.90
21759;DHT22;11041;50.854;20.580;2023-11-21T12:16:48;7.50;99.90
21759;DHT22;11041;50.854;20.580;2023-11-21T12:19:15;7.60;99.90
21759;DHT22;11041;50.854;20.580;2023-11-21T12:21:41;7.50;99.90
21759;DHT22;11041;50.854;20.580;2023-11-21T12:24:10;7.50;99.90
21759;DHT22;11041;50.854;20.580;2023-11-21T12:26:41;7.40;99.90
21759;DHT22;11041;50.854;20.580;2023-11-21T12:29:09;7.40;99.90
21759;DHT22;11041;50.854;20.580;2023-11-21T12:31:36;7.40;99.90
21759;DHT22;11041;50.854;20.580;2023-11-21T12:34:03;7.40;99.90
21759;DHT22;11041;50.854;20.580;2023-11-21T12:36:32;7.40;99.90
21759;DHT22;11041;50.854;20.580;2023-11-21T12:39:00;7.30;99.90
21759;DHT22;11041;50.854;20.580;2023-11-21T12:41:28;7.30;99.90
21759;DHT22;11041;50.854;20.580;2023-11-21T12:43:56;7.20;99.90
21759;DHT22;11041;50.854;20.580;2023-11-21T12:46:24;7.10;99.90
21759;DHT22;11041;50.854;20.580;2023-11-21T12:48:55;7.10;99.90
21759;DHT22;11041;50.854;20.580;2023-11-21T12:51:24;7.00;99.90
21759;DHT22;11041;50.854;20.580;2023-11-21T12:53:51;6.90;99.90
21759;DHT22;11041;50.854;20.580;2023-11-21T12:56:21;6.80;99.90
21759;DHT22;11041;50.854;20.580;2023-11-21T12:58:54;6.80;99.90
21759;DHT22;11041;50.854;20.580;2023-11-21T13:01:25;6.60;99.90
21759;DHT22;11041;50.854;20.580;2023-11-21T13:03:54;6.50;99.90
21759;DHT22;11041;50.854;20.580;2023-11-21T13:06:23;6.50;99.90
21759;DHT22;11041;50.854;20.580;2023-11-21T13:08:52;6.50;99.90
21759;DHT22;11041;50.854;20.580;2023-11-21T13:11:23;6.50;99.90
21759;DHT22;11041;50.854;20.580;2023-11-21T13:13:52;6.40;99.90
21759;DHT22;11041;50.854;20.580;2023-11-21T13:16:22;6.40;99.90
21759;DHT22;11041;50.854;20.580;2023-11-21T13:18:50;6.30;99.90
21759;DHT22;11041;50.854;20.580;2023-11-21T13:21:17;6.30;99.90
21759;DHT22;11041;50.854;20.580;2023-11-21T13:23:43;6.10;99.90
21759;DHT22;11041;50.854;20.580;2023-11-21T13:26:12;6.00;99.90
21759;DHT22;11041;50.854;20.580;2023-11-21T13:28:40;5.90;99.90
21759;DHT22;11041;50.854;20.580;2023-11-21T13:31:12;5.90;99.90
21759;DHT22;11041;50.854;20.580;2023-11-21T13:33:52;5.80;99.90
21759;DHT22;11041;50.854;20.580;2023-11-21T13:36:25;5.80;99.90
21759;DHT22;11041;50.854;20.580;2023-11-21T13:38:56;5.70;99.90
21759;DHT22;11041;50.854;20.580;2023-11-21T13:41:25;5.60;99.90
21759;DHT22;11041;50.854;20.580;2023-11-21T13:43:56;5.50;99.90
21759;DHT22;11041;50.854;20.580;2023-11-21T13:46:42;5.50;99.90
21759;DHT22;11041;50.854;20.580;2023-11-21T13:49:10;5.40;99.90
21759;DHT22;11041;50.854;20.580;2023-11-21T13:51:36;5.40;99.90
21759;DHT22;11041;50.854;20.580;2023-11-21T13:54:16;5.40;99.90
21759;DHT22;11041;50.854;20.580;2023-11-21T13:56:46;5.40;99.90
21759;DHT22;11041;50.854;20.580;2023-11-21T13:59:13;5.40;99.90
21759;DHT22;11041;50.854;20.580;2023-11-21T14:02:06;5.40;99.90
21759;DHT22;11041;50.854;20.580;2023-11-21T14:04:44;5.40;99.90
21759;DHT22;11041;50.854;20.580;2023-11-21T14:07:27;5.30;99.90
21759;DHT22;11041;50.854;20.580;2023-11-21T14:10:14;5.30;99.90
21759;DHT22;11041;50.854;20.580;2023-11-21T14:12:42;5.20;99.90
21759;DHT22;11041;50.854;20.580;2023-11-21T14:15:09;5.00;99.90
21759;DHT22;11041;50.854;20.580;2023-11-21T14:17:38;5.00;99.90
21759;DHT22;11041;50.854;20.580;2023-11-21T14:20:08;4.80;99.90
21759;DHT22;11041;50.854;20.580;2023-11-21T14:22:42;4.70;99.90
21759;DHT22;11041;50.854;20.580;2023-11-21T14:25:09;4.60;99.90
21759;DHT22;11041;50.854;20.580;2023-11-21T14:27:38;4.50;99.90
21759;DHT22;11041;50.854;20.580;2023-11-21T14:30:05;4.50;99.90
21759;DHT22;11041;50.854;20.580;2023-11-21T14:32:33;4.40;99.90
21759;DHT22;11041;50.854;20.580;2023-11-21T14:34:59;4.30;99.90
21759;DHT22;11041;50.854;20.580;2023-11-21T14:37:27;4.20;99.90
21759;DHT22;11041;50.854;20.580;2023-11-21T14:39:54;4.20;99.90
21759;DHT22;11041;50.854;20.580;2023-11-21T14:42:22;4.10;99.90
21759;DHT22;11041;50.854;20.580;2023-11-21T14:44:51;4.00;99.90
21759;DHT22;11041;50.854;20.580;2023-11-21T14:47:18;4.00;99.90
21759;DHT22;11041;50.854;20.580;2023-11-21T14:49:51;4.00;99.90
21759;DHT22;11041;50.854;20.580;2023-11-21T14:52:23;3.90;99.90
21759;DHT22;11041;50.854;20.580;2023-11-21T14:55:05;3.80;99.90
21759;DHT22;11041;50.854;20.580;2023-11-21T14:57:58;3.70;99.90
21759;DHT22;11041;50.854;20.580;2023-11-21T15:00:30;3.60;99.90
21759;DHT22;11041;50.854;20.580;2023-11-21T15:03:03;3.60;99.90
21759;DHT22;11041;50.854;20.580;2023-11-21T15:05:31;3.50;99.90
21759;DHT22;11041;50.854;20.580;2023-11-21T15:07:58;3.60;99.90
21759;DHT22;11041;50.854;20.580;2023-11-21T15:10:39;3.60;99.90
21759;DHT22;11041;50.854;20.580;2023-11-21T15:13:20;3.50;99.90
21759;DHT22;11041;50.854;20.580;2023-11-21T15:15:52;3.50;99.90
21759;DHT22;11041;50.854;20.580;2023-11-21T15:18:20;3.50;99.90
21759;DHT22;11041;50.854;20.580;2023-11-21T15:20:47;3.50;99.90
21759;DHT22;11041;50.854;20.580;2023-11-21T15:23:14;3.50;99.90
21759;DHT22;11041;50.854;20.580;2023-11-21T15:25:42;3.50;99.90
21759;DHT22;11041;50.854;20.580;2023-11-21T15:28:09;3.50;99.90
21759;DHT22;11041;50.854;20.580;2023-11-21T15:30:37;3.40;99.90
21759;DHT22;11041;50.854;20.580;2023-11-21T15:33:04;3.40;99.90
21759;DHT22;11041;50.854;20.580;2023-11-21T15:35:31;3.40;99.90
21759;DHT22;11041;50.854;20.580;2023-11-21T15:37:59;3.30;99.90
21759;DHT22;11041;50.854;20.580;2023-11-21T15:40:25;3.30;99.90
21759;DHT22;11041;50.854;20.580;2023-11-21T15:42:53;3.40;99.90
21759;DHT22;11041;50.854;20.580;2023-11-21T15:45:19;3.40;99.90
21759;DHT22;11041;50.854;20.580;2023-11-21T15:47:49;3.40;99.90
21759;DHT22;11041;50.854;20.580;2023-11-21T15:50:16;3.40;99.90
21759;DHT22;11041;50.854;20.580;2023-11-21T15:52:43;3.30;99.90
21759;DHT22;11041;50.854;20.580;2023-11-21T15:55:10;3.30;99.90
21759;DHT22;11041;50.854;20.580;2023-11-21T15:57:37;3.20;99.90
21759;DHT22;11041;50.854;20.580;2023-11-21T16:00:04;3.10;99.90
21759;DHT22;11041;50.854;20.580;2023-11-21T16:02:37;3.00;99.90